sensor_id;sensor_type;location;lat;lon;timestamp;P1;durP1;ratioP1;P2;durP2;ratioP2
6505;SDS011;3286;49.858;8.768;2023-08-06T00:02:04;2.53;;;2.30;;
6505;SDS011;3286;49.858;8.768;2023-08-06T00:04:31;4.50;;;2.00;;
6505;SDS011;3286;49.858;8.768;2023-08-06T00:06:59;4.70;;;1.95;;
6505;SDS011;3286;49.858;8.768;2023-08-06T00:09:25;2.58;;;2.13;;
6505;SDS011;3286;49.858;8.768;2023-08-06T00:11:52;2.90;;;2.20;;
6505;SDS011;3286;49.858;8.768;2023-08-06T00:14:19;4.10;;;2.20;;
6505;SDS011;3286;49.858;8.768;2023-08-06T00:16:45;3.92;;;2.10;;
6505;SDS011;3286;49.858;8.768;2023-08-06T00:19:12;2.53;;;2.20;;
6505;SDS011;3286;49.858;8.768;2023-08-06T00:21:39;2.53;;;2.20;;
6505;SDS011;3286;49.858;8.768;2023-08-06T00:24:07;3.53;;;2.42;;
6505;SDS011;3286;49.858;8.768;2023-08-06T00:26:33;3.85;;;2.72;;
6505;SDS011;3286;49.858;8.768;2023-08-06T00:29:00;2.63;;;2.30;;
6505;SDS011;3286;49.858;8.768;2023-08-06T00:31:27;2.33;;;2.13;;
6505;SDS011;3286;49.858;8.768;2023-08-06T00:33:54;2.00;;;1.90;;
6505;SDS011;3286;49.858;8.768;2023-08-06T00:36:20;3.15;;;2.20;;
6505;SDS011;3286;49.858;8.768;2023-08-06T00:38:47;3.30;;;2.10;;
6505;SDS011;3286;49.858;8.768;2023-08-06T00:41:15;3.03;;;2.10;;
6505;SDS011;3286;49.858;8.768;2023-08-06T00:43:42;2.78;;;2.20;;
6505;SDS011;3286;49.858;8.768;2023-08-06T00:46:08;3.97;;;2.13;;
6505;SDS011;3286;49.858;8.768;2023-08-06T00:48:36;3.60;;;2.05;;
6505;SDS011;3286;49.858;8.768;2023-08-06T00:51:03;3.42;;;2.03;;
6505;SDS011;3286;49.858;8.768;2023-08-06T00:53:29;2.95;;;2.00;;
6505;SDS011;3286;49.858;8.768;2023-08-06T00:55:56;2.83;;;2.25;;
6505;SDS011;3286;49.858;8.768;2023-08-06T00:58:26;3.30;;;1.90;;
6505;SDS011;3286;49.858;8.768;2023-08-06T01:00:52;6.55;;;2.22;;
6505;SDS011;3286;49.858;8.768;2023-08-06T01:03:19;3.72;;;2.00;;
6505;SDS011;3286;49.858;8.768;2023-08-06T01:05:46;2.38;;;2.10;;
6505;SDS011;3286;49.858;8.768;2023-08-06T01:08:15;3.38;;;2.30;;
6505;SDS011;3286;49.858;8.768;2023-08-06T01:10:55;2.70;;;2.28;;
6505;SDS011;3286;49.858;8.768;2023-08-06T01:13:33;2.95;;;2.05;;
6505;SDS011;3286;49.858;8.768;2023-08-06T01:16:07;3.22;;;2.20;;
6505;SDS011;3286;49.858;8.768;2023-08-06T01:18:37;2.60;;;1.92;;
6505;SDS011;3286;49.858;8.768;2023-08-06T01:21:05;3.28;;;2.30;;
6505;SDS011;3286;49.858;8.768;2023-08-06T01:23:32;3.00;;;2.22;;
6505;SDS011;3286;49.858;8.768;2023-08-06T01:26:02;2.88;;;2.35;;
6505;SDS011;3286;49.858;8.768;2023-08-06T01:28:39;4.53;;;2.28;;
6505;SDS011;3286;49.858;8.768;2023-08-06T01:31:10;3.15;;;2.20;;
6505;SDS011;3286;49.858;8.768;2023-08-06T01:33:45;2.70;;;2.25;;
6505;SDS011;3286;49.858;8.768;2023-08-06T01:36:15;2.90;;;2.10;;
6505;SDS011;3286;49.858;8.768;2023-08-06T01:38:43;3.00;;;1.80;;
6505;SDS011;3286;49.858;8.768;2023-08-06T01:41:10;4.03;;;2.10;;
6505;SDS011;3286;49.858;8.768;2023-08-06T01:43:37;4.38;;;2.15;;
6505;SDS011;3286;49.858;8.768;2023-08-06T01:46:04;2.90;;;2.20;;
6505;SDS011;3286;49.858;8.768;2023-08-06T01:48:30;3.15;;;2.30;;
6505;SDS011;3286;49.858;8.768;2023-08-06T01:50:57;3.00;;;1.95;;
6505;SDS011;3286;49.858;8.768;2023-08-06T01:53:25;4.45;;;2.28;;
6505;SDS011;3286;49.858;8.768;2023-08-06T01:55:51;3.08;;;2.00;;
6505;SDS011;3286;49.858;8.768;2023-08-06T01:58:18;2.28;;;2.00;;
6505;SDS011;3286;49.858;8.768;2023-08-06T02:00:44;3.00;;;1.90;;
6505;SDS011;3286;49.858;8.768;2023-08-06T02:03:11;5.40;;;2.40;;
6505;SDS011;3286;49.858;8.768;2023-08-06T02:05:38;2.60;;;2.00;;
6505;SDS011;3286;49.858;8.768;2023-08-06T02:08:05;4.00;;;2.15;;
6505;SDS011;3286;49.858;8.768;2023-08-06T02:10:35;2.08;;;1.80;;
6505;SDS011;3286;49.858;8.768;2023-08-06T02:13:03;4.60;;;1.67;;
6505;SDS011;3286;49.858;8.768;2023-08-06T02:15:32;2.10;;;1.70;;
6505;SDS011;3286;49.858;8.768;2023-08-06T02:18:00;4.05;;;1.65;;
6505;SDS011;3286;49.858;8.768;2023-08-06T02:20:29;2.90;;;2.03;;
6505;SDS011;3286;49.858;8.768;2023-08-06T02:22:57;3.65;;;1.67;;
6505;SDS011;3286;49.858;8.768;2023-08-06T02:25:26;2.42;;;1.80;;
6505;SDS011;3286;49.858;8.768;2023-08-06T02:27:56;2.47;;;1.80;;
6505;SDS011;3286;49.858;8.768;2023-08-06T02:30:26;1.95;;;1.75;;
6505;SDS011;3286;49.858;8.768;2023-08-06T02:32:55;2.05;;;1.75;;
6505;SDS011;3286;49.858;8.768;2023-08-06T02:35:23;4.57;;;1.92;;
6505;SDS011;3286;49.858;8.768;2023-08-06T02:37:52;1.90;;;1.60;;
6505;SDS011;3286;49.858;8.768;2023-08-06T02:40:20;9.27;;;2.10;;
6505;SDS011;3286;49.858;8.768;2023-08-06T02:42:49;3.35;;;1.85;;
6505;SDS011;3286;49.858;8.768;2023-08-06T02:45:19;4.35;;;1.70;;
6505;SDS011;3286;49.858;8.768;2023-08-06T02:47:50;7.38;;;1.98;;
6505;SDS011;3286;49.858;8.768;2023-08-06T02:50:18;2.03;;;1.73;;
6505;SDS011;3286;49.858;8.768;2023-08-06T02:52:47;3.45;;;1.60;;
6505;SDS011;3286;49.858;8.768;2023-08-06T02:55:16;2.28;;;1.98;;
6505;SDS011;3286;49.858;8.768;2023-08-06T02:57:44;2.67;;;1.63;;
6505;SDS011;3286;49.858;8.768;2023-08-06T03:00:16;2.78;;;1.70;;
6505;SDS011;3286;49.858;8.768;2023-08-06T03:02:46;2.00;;;1.80;;
6505;SDS011;3286;49.858;8.768;2023-08-06T03:05:14;2.72;;;1.85;;
6505;SDS011;3286;49.858;8.768;2023-08-06T03:07:43;2.30;;;1.90;;
6505;SDS011;3286;49.858;8.768;2023-08-06T03:10:11;3.83;;;1.60;;
6505;SDS011;3286;49.858;8.768;2023-08-06T03:12:39;2.58;;;1.77;;
6505;SDS011;3286;49.858;8.768;2023-08-06T03:15:06;3.95;;;1.70;;
6505;SDS011;3286;49.858;8.768;2023-08-06T03:17:34;4.57;;;1.70;;
6505;SDS011;3286;49.858;8.768;2023-08-06T03:20:02;3.55;;;1.80;;
6505;SDS011;3286;49.858;8.768;2023-08-06T03:22:28;2.30;;;2.10;;
6505;SDS011;3286;49.858;8.768;2023-08-06T03:24:55;2.92;;;1.70;;
6505;SDS011;3286;49.858;8.768;2023-08-06T03:27:22;3.22;;;1.90;;
6505;SDS011;3286;49.858;8.768;2023-08-06T03:29:48;2.42;;;1.98;;
6505;SDS011;3286;49.858;8.768;2023-08-06T03:32:16;2.10;;;1.90;;
6505;SDS011;3286;49.858;8.768;2023-08-06T03:34:42;2.40;;;2.00;;
6505;SDS011;3286;49.858;8.768;2023-08-06T03:37:10;5.03;;;2.15;;
6505;SDS011;3286;49.858;8.768;2023-08-06T03:39:37;2.20;;;1.70;;
6505;SDS011;3286;49.858;8.768;2023-08-06T03:42:04;2.00;;;1.83;;
6505;SDS011;3286;49.858;8.768;2023-08-06T03:44:31;3.70;;;2.00;;
6505;SDS011;3286;49.858;8.768;2023-08-06T03:46:58;4.57;;;1.90;;
6505;SDS011;3286;49.858;8.768;2023-08-06T03:49:24;1.60;;;1.50;;
6505;SDS011;3286;49.858;8.768;2023-08-06T03:51:51;2.75;;;2.05;;
6505;SDS011;3286;49.858;8.768;2023-08-06T03:54:19;2.53;;;1.85;;
6505;SDS011;3286;49.858;8.768;2023-08-06T03:56:45;4.07;;;2.05;;
6505;SDS011;3286;49.858;8.768;2023-08-06T03:59:12;3.55;;;1.92;;
6505;SDS011;3286;49.858;8.768;2023-08-06T04:01:39;4.25;;;2.25;;
6505;SDS011;3286;49.858;8.768;2023-08-06T04:04:05;2.15;;;1.90;;
6505;SDS011;3286;49.858;8.768;2023-08-06T04:06:32;3.25;;;2.00;;
6505;SDS011;3286;49.858;8.768;2023-08-06T04:08:58;3.08;;;1.75;;
6505;SDS011;3286;49.858;8.768;2023-08-06T04:11:26;2.00;;;1.70;;
6505;SDS011;3286;49.858;8.768;2023-08-06T04:13:53;8.57;;;2.03;;
6505;SDS011;3286;49.858;8.768;2023-08-06T04:16:20;2.40;;;1.92;;
6505;SDS011;3286;49.858;8.768;2023-08-06T04:18:47;2.03;;;1.60;;
6505;SDS011;3286;49.858;8.768;2023-08-06T04:21:13;2.28;;;1.80;;
6505;SDS011;3286;49.858;8.768;2023-08-06T04:23:40;4.65;;;1.50;;
6505;SDS011;3286;49.858;8.768;2023-08-06T04:26:07;8.32;;;2.05;;
6505;SDS011;3286;49.858;8.768;2023-08-06T04:28:35;4.22;;;2.40;;
6505;SDS011;3286;49.858;8.768;2023-08-06T04:31:01;3.53;;;1.70;;
6505;SDS011;3286;49.858;8.768;2023-08-06T04:33:28;2.90;;;1.92;;
6505;SDS011;3286;49.858;8.768;2023-08-06T04:35:55;2.78;;;1.90;;
6505;SDS011;3286;49.858;8.768;2023-08-06T04:38:22;4.18;;;1.90;;
6505;SDS011;3286;49.858;8.768;2023-08-06T04:40:50;3.42;;;1.75;;
6505;SDS011;3286;49.858;8.768;2023-08-06T04:43:17;4.05;;;1.55;;
6505;SDS011;3286;49.858;8.768;2023-08-06T04:45:47;3.40;;;1.83;;
6505;SDS011;3286;49.858;8.768;2023-08-06T04:48:13;2.30;;;1.50;;
6505;SDS011;3286;49.858;8.768;2023-08-06T04:50:43;4.50;;;1.80;;
6505;SDS011;3286;49.858;8.768;2023-08-06T04:53:10;1.75;;;1.60;;
6505;SDS011;3286;49.858;8.768;2023-08-06T04:55:37;3.58;;;1.60;;
6505;SDS011;3286;49.858;8.768;2023-08-06T04:58:04;3.47;;;1.73;;
6505;SDS011;3286;49.858;8.768;2023-08-06T05:00:30;3.25;;;1.73;;
6505;SDS011;3286;49.858;8.768;2023-08-06T05:02:59;2.03;;;1.42;;
6505;SDS011;3286;49.858;8.768;2023-08-06T05:05:26;2.78;;;1.55;;
6505;SDS011;3286;49.858;8.768;2023-08-06T05:07:53;1.35;;;1.23;;
6505;SDS011;3286;49.858;8.768;2023-08-06T05:10:21;2.78;;;1.45;;
6505;SDS011;3286;49.858;8.768;2023-08-06T05:12:47;4.25;;;1.70;;
6505;SDS011;3286;49.858;8.768;2023-08-06T05:15:14;1.73;;;1.35;;
6505;SDS011;3286;49.858;8.768;2023-08-06T05:17:41;1.88;;;1.20;;
6505;SDS011;3286;49.858;8.768;2023-08-06T05:20:09;3.35;;;1.30;;
6505;SDS011;3286;49.858;8.768;2023-08-06T05:22:37;3.20;;;1.00;;
6505;SDS011;3286;49.858;8.768;2023-08-06T05:25:04;2.83;;;0.95;;
6505;SDS011;3286;49.858;8.768;2023-08-06T05:27:31;2.40;;;1.73;;
6505;SDS011;3286;49.858;8.768;2023-08-06T05:29:58;2.38;;;1.10;;
6505;SDS011;3286;49.858;8.768;2023-08-06T05:32:24;2.20;;;1.00;;
6505;SDS011;3286;49.858;8.768;2023-08-06T05:34:51;1.85;;;1.23;;
6505;SDS011;3286;49.858;8.768;2023-08-06T05:37:20;2.55;;;1.20;;
6505;SDS011;3286;49.858;8.768;2023-08-06T05:39:46;4.78;;;2.15;;
6505;SDS011;3286;49.858;8.768;2023-08-06T05:42:13;2.08;;;1.27;;
6505;SDS011;3286;49.858;8.768;2023-08-06T05:44:40;1.73;;;1.30;;
6505;SDS011;3286;49.858;8.768;2023-08-06T05:47:06;1.48;;;1.02;;
6505;SDS011;3286;49.858;8.768;2023-08-06T05:49:33;1.38;;;1.27;;
6505;SDS011;3286;49.858;8.768;2023-08-06T05:51:59;3.67;;;1.25;;
6505;SDS011;3286;49.858;8.768;2023-08-06T05:54:29;1.98;;;1.40;;
6505;SDS011;3286;49.858;8.768;2023-08-06T05:56:55;2.08;;;1.38;;
6505;SDS011;3286;49.858;8.768;2023-08-06T05:59:22;2.22;;;1.20;;
6505;SDS011;3286;49.858;8.768;2023-08-06T06:01:48;1.92;;;1.27;;
6505;SDS011;3286;49.858;8.768;2023-08-06T06:04:15;2.60;;;1.20;;
6505;SDS011;3286;49.858;8.768;2023-08-06T06:06:42;0.93;;;0.90;;
6505;SDS011;3286;49.858;8.768;2023-08-06T06:09:09;1.83;;;1.10;;
6505;SDS011;3286;49.858;8.768;2023-08-06T06:11:37;1.75;;;0.90;;
6505;SDS011;3286;49.858;8.768;2023-08-06T06:14:04;1.27;;;1.08;;
6505;SDS011;3286;49.858;8.768;2023-08-06T06:16:31;1.20;;;0.98;;
6505;SDS011;3286;49.858;8.768;2023-08-06T06:18:57;1.13;;;1.02;;
6505;SDS011;3286;49.858;8.768;2023-08-06T06:21:24;1.25;;;1.15;;
6505;SDS011;3286;49.858;8.768;2023-08-06T06:23:51;1.13;;;0.93;;
6505;SDS011;3286;49.858;8.768;2023-08-06T06:26:17;1.20;;;1.08;;
6505;SDS011;3286;49.858;8.768;2023-08-06T06:28:45;1.85;;;1.00;;
6505;SDS011;3286;49.858;8.768;2023-08-06T06:31:12;2.45;;;1.05;;
6505;SDS011;3286;49.858;8.768;2023-08-06T06:33:38;0.85;;;0.85;;
6505;SDS011;3286;49.858;8.768;2023-08-06T06:36:05;2.22;;;1.02;;
6505;SDS011;3286;49.858;8.768;2023-08-06T06:38:32;3.33;;;1.00;;
6505;SDS011;3286;49.858;8.768;2023-08-06T06:40:59;1.10;;;1.00;;
6505;SDS011;3286;49.858;8.768;2023-08-06T06:43:28;0.90;;;0.90;;
6505;SDS011;3286;49.858;8.768;2023-08-06T06:45:57;1.65;;;1.15;;
6505;SDS011;3286;49.858;8.768;2023-08-06T06:48:24;3.42;;;1.55;;
6505;SDS011;3286;49.858;8.768;2023-08-06T06:50:51;0.75;;;0.70;;
6505;SDS011;3286;49.858;8.768;2023-08-06T06:53:18;2.15;;;0.90;;
6505;SDS011;3286;49.858;8.768;2023-08-06T06:55:44;4.68;;;1.08;;
6505;SDS011;3286;49.858;8.768;2023-08-06T06:58:14;6.05;;;1.42;;
6505;SDS011;3286;49.858;8.768;2023-08-06T07:00:40;2.90;;;0.75;;
6505;SDS011;3286;49.858;8.768;2023-08-06T07:03:09;1.00;;;0.85;;
6505;SDS011;3286;49.858;8.768;2023-08-06T07:05:35;5.68;;;1.52;;
6505;SDS011;3286;49.858;8.768;2023-08-06T07:08:02;1.10;;;0.88;;
6505;SDS011;3286;49.858;8.768;2023-08-06T07:10:30;1.60;;;0.98;;
6505;SDS011;3286;49.858;8.768;2023-08-06T07:12:56;1.25;;;1.00;;
6505;SDS011;3286;49.858;8.768;2023-08-06T07:15:23;1.15;;;1.00;;
6505;SDS011;3286;49.858;8.768;2023-08-06T07:17:50;1.45;;;0.90;;
6505;SDS011;3286;49.858;8.768;2023-08-06T07:20:18;0.98;;;0.90;;
6505;SDS011;3286;49.858;8.768;2023-08-06T07:22:44;1.95;;;1.00;;
6505;SDS011;3286;49.858;8.768;2023-08-06T07:25:11;2.60;;;1.10;;
6505;SDS011;3286;49.858;8.768;2023-08-06T07:27:38;1.38;;;1.00;;
6505;SDS011;3286;49.858;8.768;2023-08-06T07:30:05;2.70;;;1.05;;
6505;SDS011;3286;49.858;8.768;2023-08-06T07:32:32;1.00;;;0.90;;
6505;SDS011;3286;49.858;8.768;2023-08-06T07:34:59;2.13;;;1.30;;
6505;SDS011;3286;49.858;8.768;2023-08-06T07:37:29;2.03;;;1.20;;
6505;SDS011;3286;49.858;8.768;2023-08-06T07:39:55;2.60;;;1.05;;
6505;SDS011;3286;49.858;8.768;2023-08-06T07:42:22;2.63;;;1.30;;
6505;SDS011;3286;49.858;8.768;2023-08-06T07:44:50;1.40;;;1.23;;
6505;SDS011;3286;49.858;8.768;2023-08-06T07:47:18;0.80;;;0.80;;
6505;SDS011;3286;49.858;8.768;2023-08-06T07:49:45;3.25;;;1.52;;
6505;SDS011;3286;49.858;8.768;2023-08-06T07:52:12;2.78;;;1.10;;
6505;SDS011;3286;49.858;8.768;2023-08-06T07:54:39;14.65;;;2.40;;
6505;SDS011;3286;49.858;8.768;2023-08-06T07:57:06;2.35;;;1.30;;
6505;SDS011;3286;49.858;8.768;2023-08-06T07:59:33;1.05;;;0.95;;
6505;SDS011;3286;49.858;8.768;2023-08-06T08:02:00;1.13;;;0.88;;
6505;SDS011;3286;49.858;8.768;2023-08-06T08:04:27;1.40;;;1.30;;
6505;SDS011;3286;49.858;8.768;2023-08-06T08:06:53;1.38;;;1.08;;
6505;SDS011;3286;49.858;8.768;2023-08-06T08:09:20;1.23;;;0.90;;
6505;SDS011;3286;49.858;8.768;2023-08-06T08:11:48;0.80;;;0.77;;
6505;SDS011;3286;49.858;8.768;2023-08-06T08:14:15;4.32;;;1.10;;
6505;SDS011;3286;49.858;8.768;2023-08-06T08:16:42;2.83;;;0.85;;
6505;SDS011;3286;49.858;8.768;2023-08-06T08:19:09;2.45;;;1.00;;
6505;SDS011;3286;49.858;8.768;2023-08-06T08:21:35;3.60;;;0.57;;
6505;SDS011;3286;49.858;8.768;2023-08-06T08:24:03;1.98;;;1.00;;
6505;SDS011;3286;49.858;8.768;2023-08-06T08:26:31;0.80;;;0.80;;
6505;SDS011;3286;49.858;8.768;2023-08-06T08:28:58;1.13;;;0.90;;
6505;SDS011;3286;49.858;8.768;2023-08-06T08:31:25;1.73;;;1.00;;
6505;SDS011;3286;49.858;8.768;2023-08-06T08:33:54;1.98;;;1.00;;
6505;SDS011;3286;49.858;8.768;2023-08-06T08:36:21;0.95;;;0.70;;
6505;SDS011;3286;49.858;8.768;2023-08-06T08:38:48;0.60;;;0.60;;
6505;SDS011;3286;49.858;8.768;2023-08-06T08:41:18;0.52;;;0.52;;
6505;SDS011;3286;49.858;8.768;2023-08-06T08:43:46;0.65;;;0.63;;
6505;SDS011;3286;49.858;8.768;2023-08-06T08:46:17;0.82;;;0.60;;
6505;SDS011;3286;49.858;8.768;2023-08-06T08:48:45;0.50;;;0.50;;
6505;SDS011;3286;49.858;8.768;2023-08-06T08:51:12;0.50;;;0.50;;
6505;SDS011;3286;49.858;8.768;2023-08-06T08:53:39;0.60;;;0.55;;
6505;SDS011;3286;49.858;8.768;2023-08-06T08:56:07;0.60;;;0.60;;
6505;SDS011;3286;49.858;8.768;2023-08-06T08:58:35;1.00;;;0.60;;
6505;SDS011;3286;49.858;8.768;2023-08-06T09:01:02;0.57;;;0.45;;
6505;SDS011;3286;49.858;8.768;2023-08-06T09:03:32;19.70;;;3.40;;
6505;SDS011;3286;49.858;8.768;2023-08-06T09:05:59;1.27;;;0.80;;
6505;SDS011;3286;49.858;8.768;2023-08-06T09:08:30;0.40;;;0.40;;
6505;SDS011;3286;49.858;8.768;2023-08-06T09:11:01;1.15;;;0.70;;
6505;SDS011;3286;49.858;8.768;2023-08-06T09:13:29;0.82;;;0.80;;
6505;SDS011;3286;49.858;8.768;2023-08-06T09:15:55;0.52;;;0.52;;
6505;SDS011;3286;49.858;8.768;2023-08-06T09:18:24;1.25;;;0.77;;
6505;SDS011;3286;49.858;8.768;2023-08-06T09:20:54;1.20;;;0.90;;
6505;SDS011;3286;49.858;8.768;2023-08-06T09:23:20;0.68;;;0.68;;
6505;SDS011;3286;49.858;8.768;2023-08-06T09:25:54;0.80;;;0.60;;
6505;SDS011;3286;49.858;8.768;2023-08-06T09:28:21;3.95;;;1.05;;
6505;SDS011;3286;49.858;8.768;2023-08-06T09:30:49;1.00;;;0.80;;
6505;SDS011;3286;49.858;8.768;2023-08-06T09:33:17;0.63;;;0.63;;
6505;SDS011;3286;49.858;8.768;2023-08-06T09:35:45;0.47;;;0.47;;
6505;SDS011;3286;49.858;8.768;2023-08-06T09:38:13;0.50;;;0.50;;
6505;SDS011;3286;49.858;8.768;2023-08-06T09:40:40;1.23;;;0.60;;
6505;SDS011;3286;49.858;8.768;2023-08-06T09:43:07;0.50;;;0.50;;
6505;SDS011;3286;49.858;8.768;2023-08-06T09:45:34;3.63;;;0.70;;
6505;SDS011;3286;49.858;8.768;2023-08-06T09:48:02;3.30;;;0.80;;
6505;SDS011;3286;49.858;8.768;2023-08-06T09:50:30;0.50;;;0.50;;
6505;SDS011;3286;49.858;8.768;2023-08-06T09:52:58;0.95;;;0.77;;
6505;SDS011;3286;49.858;8.768;2023-08-06T09:55:27;0.40;;;0.40;;
6505;SDS011;3286;49.858;8.768;2023-08-06T09:57:54;0.82;;;0.68;;
6505;SDS011;3286;49.858;8.768;2023-08-06T10:00:22;0.70;;;0.65;;
6505;SDS011;3286;49.858;8.768;2023-08-06T10:02:49;7.13;;;1.77;;
6505;SDS011;3286;49.858;8.768;2023-08-06T10:05:19;0.77;;;0.70;;
6505;SDS011;3286;49.858;8.768;2023-08-06T10:07:47;4.35;;;1.13;;
6505;SDS011;3286;49.858;8.768;2023-08-06T10:10:16;1.20;;;0.65;;
6505;SDS011;3286;49.858;8.768;2023-08-06T10:12:44;0.80;;;0.80;;
6505;SDS011;3286;49.858;8.768;2023-08-06T10:17:43;0.40;;;0.40;;
6505;SDS011;3286;49.858;8.768;2023-08-06T10:20:13;1.67;;;0.68;;
6505;SDS011;3286;49.858;8.768;2023-08-06T10:22:42;3.15;;;1.02;;
6505;SDS011;3286;49.858;8.768;2023-08-06T10:25:09;11.45;;;2.60;;
6505;SDS011;3286;49.858;8.768;2023-08-06T10:27:39;4.57;;;1.33;;
6505;SDS011;3286;49.858;8.768;2023-08-06T10:30:27;2.38;;;0.95;;
6505;SDS011;3286;49.858;8.768;2023-08-06T10:32:55;1.45;;;0.60;;
6505;SDS011;3286;49.858;8.768;2023-08-06T10:35:29;0.50;;;0.50;;
6505;SDS011;3286;49.858;8.768;2023-08-06T10:38:05;1.08;;;0.80;;
6505;SDS011;3286;49.858;8.768;2023-08-06T10:40:34;0.40;;;0.40;;
6505;SDS011;3286;49.858;8.768;2023-08-06T10:43:01;4.05;;;1.08;;
6505;SDS011;3286;49.858;8.768;2023-08-06T10:45:30;0.43;;;0.40;;
6505;SDS011;3286;49.858;8.768;2023-08-06T10:48:01;0.30;;;0.30;;
6505;SDS011;3286;49.858;8.768;2023-08-06T10:50:29;0.28;;;0.22;;
6505;SDS011;3286;49.858;8.768;2023-08-06T10:52:56;1.20;;;0.80;;
6505;SDS011;3286;49.858;8.768;2023-08-06T10:55:24;2.25;;;0.40;;
6505;SDS011;3286;49.858;8.768;2023-08-06T10:57:51;3.72;;;0.57;;
6505;SDS011;3286;49.858;8.768;2023-08-06T11:00:18;0.22;;;0.22;;
6505;SDS011;3286;49.858;8.768;2023-08-06T11:02:48;0.30;;;0.30;;
6505;SDS011;3286;49.858;8.768;2023-08-06T11:05:15;0.65;;;0.50;;
6505;SDS011;3286;49.858;8.768;2023-08-06T11:07:42;0.50;;;0.40;;
6505;SDS011;3286;49.858;8.768;2023-08-06T11:10:10;0.30;;;0.30;;
6505;SDS011;3286;49.858;8.768;2023-08-06T11:12:38;0.60;;;0.40;;
6505;SDS011;3286;49.858;8.768;2023-08-06T11:15:06;0.60;;;0.47;;
6505;SDS011;3286;49.858;8.768;2023-08-06T11:17:34;0.22;;;0.22;;
6505;SDS011;3286;49.858;8.768;2023-08-06T11:20:03;6.03;;;0.47;;
6505;SDS011;3286;49.858;8.768;2023-08-06T11:22:30;0.40;;;0.40;;
6505;SDS011;3286;49.858;8.768;2023-08-06T11:24:57;0.50;;;0.50;;
6505;SDS011;3286;49.858;8.768;2023-08-06T11:27:26;0.22;;;0.22;;
6505;SDS011;3286;49.858;8.768;2023-08-06T11:29:54;0.40;;;0.40;;
6505;SDS011;3286;49.858;8.768;2023-08-06T11:32:21;9.05;;;2.50;;
6505;SDS011;3286;49.858;8.768;2023-08-06T11:34:48;0.70;;;0.30;;
6505;SDS011;3286;49.858;8.768;2023-08-06T11:37:16;2.20;;;0.75;;
6505;SDS011;3286;49.858;8.768;2023-08-06T11:39:44;1.45;;;0.10;;
6505;SDS011;3286;49.858;8.768;2023-08-06T11:42:13;0.95;;;0.30;;
6505;SDS011;3286;49.858;8.768;2023-08-06T11:44:40;0.30;;;0.25;;
6505;SDS011;3286;49.858;8.768;2023-08-06T11:47:11;0.17;;;0.10;;
6505;SDS011;3286;49.858;8.768;2023-08-06T11:49:40;0.32;;;0.20;;
6505;SDS011;3286;49.858;8.768;2023-08-06T11:52:17;0.10;;;0.10;;
6505;SDS011;3286;49.858;8.768;2023-08-06T11:54:59;0.20;;;0.20;;
6505;SDS011;3286;49.858;8.768;2023-08-06T11:57:28;0.20;;;0.20;;
6505;SDS011;3286;49.858;8.768;2023-08-06T11:59:57;1.05;;;0.32;;
6505;SDS011;3286;49.858;8.768;2023-08-06T12:02:24;0.68;;;0.32;;
6505;SDS011;3286;49.858;8.768;2023-08-06T12:05:01;0.65;;;0.57;;
6505;SDS011;3286;49.858;8.768;2023-08-06T12:07:32;1.27;;;0.32;;
6505;SDS011;3286;49.858;8.768;2023-08-06T12:10:02;0.75;;;0.40;;
6505;SDS011;3286;49.858;8.768;2023-08-06T12:12:29;0.30;;;0.30;;
6505;SDS011;3286;49.858;8.768;2023-08-06T12:14:56;1.55;;;0.47;;
6505;SDS011;3286;49.858;8.768;2023-08-06T12:17:23;0.30;;;0.30;;
6505;SDS011;3286;49.858;8.768;2023-08-06T12:19:50;0.40;;;0.40;;
6505;SDS011;3286;49.858;8.768;2023-08-06T12:22:17;2.72;;;0.65;;
6505;SDS011;3286;49.858;8.768;2023-08-06T12:24:45;0.30;;;0.30;;
6505;SDS011;3286;49.858;8.768;2023-08-06T12:27:13;0.60;;;0.60;;
6505;SDS011;3286;49.858;8.768;2023-08-06T12:29:40;0.43;;;0.43;;
6505;SDS011;3286;49.858;8.768;2023-08-06T12:32:07;0.90;;;0.47;;
6505;SDS011;3286;49.858;8.768;2023-08-06T12:34:34;0.68;;;0.47;;
6505;SDS011;3286;49.858;8.768;2023-08-06T12:37:01;0.63;;;0.43;;
6505;SDS011;3286;49.858;8.768;2023-08-06T12:39:28;1.05;;;0.52;;
6505;SDS011;3286;49.858;8.768;2023-08-06T12:41:57;1.65;;;0.65;;
6505;SDS011;3286;49.858;8.768;2023-08-06T12:44:24;0.52;;;0.52;;
6505;SDS011;3286;49.858;8.768;2023-08-06T12:46:51;0.40;;;0.30;;
6505;SDS011;3286;49.858;8.768;2023-08-06T12:49:18;0.95;;;0.60;;
6505;SDS011;3286;49.858;8.768;2023-08-06T12:51:46;1.95;;;0.82;;
6505;SDS011;3286;49.858;8.768;2023-08-06T12:54:13;0.70;;;0.60;;
6505;SDS011;3286;49.858;8.768;2023-08-06T12:56:39;4.45;;;0.82;;
6505;SDS011;3286;49.858;8.768;2023-08-06T12:59:07;6.50;;;1.02;;
6505;SDS011;3286;49.858;8.768;2023-08-06T13:01:34;2.55;;;0.70;;
6505;SDS011;3286;49.858;8.768;2023-08-06T13:04:00;0.70;;;0.70;;
6505;SDS011;3286;49.858;8.768;2023-08-06T13:06:27;0.98;;;0.55;;
6505;SDS011;3286;49.858;8.768;2023-08-06T13:08:55;0.63;;;0.60;;
6505;SDS011;3286;49.858;8.768;2023-08-06T13:11:22;0.50;;;0.50;;
6505;SDS011;3286;49.858;8.768;2023-08-06T13:13:50;0.85;;;0.57;;
6505;SDS011;3286;49.858;8.768;2023-08-06T13:16:18;1.90;;;0.60;;
6505;SDS011;3286;49.858;8.768;2023-08-06T13:18:44;0.57;;;0.57;;
6505;SDS011;3286;49.858;8.768;2023-08-06T13:21:11;1.33;;;0.80;;
6505;SDS011;3286;49.858;8.768;2023-08-06T13:23:38;0.80;;;0.80;;
6505;SDS011;3286;49.858;8.768;2023-08-06T13:26:05;0.55;;;0.55;;
6505;SDS011;3286;49.858;8.768;2023-08-06T13:28:31;0.52;;;0.52;;
6505;SDS011;3286;49.858;8.768;2023-08-06T13:30:58;0.82;;;0.70;;
6505;SDS011;3286;49.858;8.768;2023-08-06T13:33:26;1.33;;;0.85;;
6505;SDS011;3286;49.858;8.768;2023-08-06T13:35:53;0.55;;;0.55;;
6505;SDS011;3286;49.858;8.768;2023-08-06T13:38:19;5.95;;;0.70;;
6505;SDS011;3286;49.858;8.768;2023-08-06T13:40:46;1.77;;;0.70;;
6505;SDS011;3286;49.858;8.768;2023-08-06T13:43:14;1.77;;;0.93;;
6505;SDS011;3286;49.858;8.768;2023-08-06T13:45:42;1.45;;;0.50;;
6505;SDS011;3286;49.858;8.768;2023-08-06T13:48:08;2.97;;;0.70;;
6505;SDS011;3286;49.858;8.768;2023-08-06T13:50:37;1.52;;;0.63;;
6505;SDS011;3286;49.858;8.768;2023-08-06T13:53:03;1.02;;;0.60;;
6505;SDS011;3286;49.858;8.768;2023-08-06T13:55:30;2.05;;;0.63;;
6505;SDS011;3286;49.858;8.768;2023-08-06T13:57:57;1.35;;;0.73;;
6505;SDS011;3286;49.858;8.768;2023-08-06T14:00:23;0.40;;;0.40;;
6505;SDS011;3286;49.858;8.768;2023-08-06T14:02:50;1.08;;;0.60;;
6505;SDS011;3286;49.858;8.768;2023-08-06T14:05:17;0.85;;;0.45;;
6505;SDS011;3286;49.858;8.768;2023-08-06T14:07:44;1.38;;;0.80;;
6505;SDS011;3286;49.858;8.768;2023-08-06T14:10:11;0.40;;;0.40;;
6505;SDS011;3286;49.858;8.768;2023-08-06T14:12:38;0.40;;;0.40;;
6505;SDS011;3286;49.858;8.768;2023-08-06T14:15:05;1.02;;;0.30;;
6505;SDS011;3286;49.858;8.768;2023-08-06T14:17:32;0.60;;;0.47;;
6505;SDS011;3286;49.858;8.768;2023-08-06T14:19:59;1.65;;;0.93;;
6505;SDS011;3286;49.858;8.768;2023-08-06T14:22:28;0.57;;;0.50;;
6505;SDS011;3286;49.858;8.768;2023-08-06T14:24:57;1.60;;;0.52;;
6505;SDS011;3286;49.858;8.768;2023-08-06T14:27:23;1.20;;;0.55;;
6505;SDS011;3286;49.858;8.768;2023-08-06T14:29:50;2.55;;;0.63;;
6505;SDS011;3286;49.858;8.768;2023-08-06T14:32:17;0.50;;;0.50;;
6505;SDS011;3286;49.858;8.768;2023-08-06T14:34:49;2.17;;;0.47;;
6505;SDS011;3286;49.858;8.768;2023-08-06T14:37:16;0.63;;;0.40;;
6505;SDS011;3286;49.858;8.768;2023-08-06T14:39:42;5.10;;;0.70;;
6505;SDS011;3286;49.858;8.768;2023-08-06T14:42:11;1.00;;;0.52;;
6505;SDS011;3286;49.858;8.768;2023-08-06T14:44:37;10.18;;;2.25;;
6505;SDS011;3286;49.858;8.768;2023-08-06T14:47:04;0.95;;;0.50;;
6505;SDS011;3286;49.858;8.768;2023-08-06T14:49:30;1.02;;;0.40;;
6505;SDS011;3286;49.858;8.768;2023-08-06T14:51:57;1.10;;;0.50;;
6505;SDS011;3286;49.858;8.768;2023-08-06T14:54:26;0.85;;;0.50;;
6505;SDS011;3286;49.858;8.768;2023-08-06T14:56:53;0.95;;;0.40;;
6505;SDS011;3286;49.858;8.768;2023-08-06T14:59:21;1.40;;;0.93;;
6505;SDS011;3286;49.858;8.768;2023-08-06T15:01:48;0.55;;;0.55;;
6505;SDS011;3286;49.858;8.768;2023-08-06T15:04:16;0.40;;;0.40;;
6505;SDS011;3286;49.858;8.768;2023-08-06T15:06:43;0.30;;;0.30;;
6505;SDS011;3286;49.858;8.768;2023-08-06T15:09:10;3.50;;;0.60;;
6505;SDS011;3286;49.858;8.768;2023-08-06T15:11:37;0.65;;;0.47;;
6505;SDS011;3286;49.858;8.768;2023-08-06T15:14:03;0.40;;;0.40;;
6505;SDS011;3286;49.858;8.768;2023-08-06T15:16:33;0.52;;;0.30;;
6505;SDS011;3286;49.858;8.768;2023-08-06T15:19:00;0.50;;;0.50;;
6505;SDS011;3286;49.858;8.768;2023-08-06T15:21:27;2.67;;;0.60;;